createdAt,value
2022-08-31T00:00:43.367Z,55.62
2022-08-31T00:03:30.413Z,55.38
2022-08-31T00:06:02.178Z,55.40
2022-08-31T00:08:31.629Z,55.60
2022-08-31T00:11:01.023Z,55.91
2022-08-31T00:13:30.323Z,56.25
2022-08-31T00:15:58.975Z,56.61
2022-08-31T00:18:27.588Z,56.89
2022-08-31T00:20:56.089Z,56.65
2022-08-31T00:23:26.223Z,56.83
2022-08-31T00:25:54.983Z,56.78
2022-08-31T00:28:23.592Z,56.45
2022-08-31T00:30:52.273Z,56.93
2022-08-31T00:33:20.861Z,57.50
2022-08-31T00:35:49.777Z,57.55
2022-08-31T00:38:18.400Z,57.58
2022-08-31T00:40:48.002Z,57.63
2022-08-31T00:43:45.439Z,57.72
2022-08-31T00:46:18.622Z,58.12
2022-08-31T00:48:57.933Z,58.36
2022-08-31T00:51:29.064Z,58.06
2022-08-31T00:53:58.697Z,58.40
2022-08-31T00:56:28.190Z,57.88
2022-08-31T00:58:57.185Z,58.20
2022-08-31T01:01:28.199Z,58.47
2022-08-31T01:03:58.155Z,57.93
2022-08-31T01:06:27.190Z,58.62
2022-08-31T01:08:59.715Z,58.61
2022-08-31T01:11:29.284Z,58.33
2022-08-31T01:13:58.502Z,58.20
2022-08-31T01:16:33.609Z,58.14
2022-08-31T01:19:06.045Z,58.10
2022-08-31T01:22:15.495Z,58.17
2022-08-31T01:24:47.381Z,58.12
2022-08-31T01:27:20.343Z,57.97
2022-08-31T01:29:48.957Z,57.77
2022-08-31T01:32:17.588Z,57.81
2022-08-31T01:34:46.375Z,58.01
2022-08-31T01:37:15.367Z,57.87
2022-08-31T01:39:44.362Z,57.83
2022-08-31T01:42:13.101Z,57.94
2022-08-31T01:44:41.633Z,58.50
2022-08-31T01:47:10.493Z,58.17
2022-08-31T01:49:39.553Z,58.19
2022-08-31T01:52:08.309Z,58.30
2022-08-31T01:54:37.214Z,58.42
2022-08-31T01:57:07.017Z,58.26
2022-08-31T01:59:54.439Z,58.34
2022-08-31T02:02:43.266Z,58.22
2022-08-31T02:05:14.772Z,58.32
2022-08-31T02:07:47.026Z,58.26
2022-08-31T02:10:15.966Z,58.18
2022-08-31T02:12:44.828Z,58.09
2022-08-31T02:15:13.757Z,58.02
2022-08-31T02:17:42.690Z,58.29
2022-08-31T02:20:15.042Z,58.32
2022-08-31T02:22:44.776Z,58.25
2022-08-31T02:25:13.401Z,58.50
2022-08-31T02:27:42.062Z,58.20
2022-08-31T02:30:15.343Z,58.11
2022-08-31T02:32:44.237Z,58.02
2022-08-31T02:35:13.010Z,58.13
2022-08-31T02:37:41.740Z,58.33
2022-08-31T02:40:12.092Z,58.27
2022-08-31T02:42:52.755Z,58.41
2022-08-31T02:45:25.821Z,58.52
2022-08-31T02:47:57.788Z,58.79
2022-08-31T02:50:44.664Z,58.90
2022-08-31T02:53:15.607Z,59.13
2022-08-31T02:55:45.723Z,59.11
2022-08-31T02:58:14.716Z,59.15
2022-08-31T03:00:48.752Z,59.36
2022-08-31T03:03:18.867Z,59.46
2022-08-31T03:05:47.947Z,59.30
2022-08-31T03:08:18.645Z,59.59
2022-08-31T03:10:49.204Z,59.83
2022-08-31T03:13:19.240Z,60.03
2022-08-31T03:15:48.571Z,60.90
2022-08-31T03:18:18.445Z,61.43
2022-08-31T03:20:47.062Z,62.20
2022-08-31T03:23:16.024Z,62.59
2022-08-31T03:25:45.014Z,62.19
2022-08-31T03:28:15.032Z,62.02
2022-08-31T03:30:47.616Z,62.06
2022-08-31T03:33:17.188Z,62.67
2022-08-31T03:35:46.520Z,62.77
2022-08-31T03:38:17.237Z,62.59
2022-08-31T03:40:47.305Z,62.67
2022-08-31T03:43:16.486Z,62.72
2022-08-31T03:45:45.467Z,62.73
2022-08-31T03:48:13.933Z,62.91
2022-08-31T03:50:45.088Z,62.69
2022-08-31T03:53:22.962Z,63.02
2022-08-31T03:56:02.228Z,62.68
2022-08-31T03:58:33.179Z,62.55
2022-08-31T04:01:02.875Z,62.54
2022-08-31T04:04:04.233Z,62.76
2022-08-31T04:06:53.499Z,63.04
2022-08-31T04:09:40.927Z,62.86
2022-08-31T04:12:42.329Z,62.78
2022-08-31T04:15:16.606Z,63.13
2022-08-31T04:17:48.155Z,63.18
2022-08-31T04:20:47.863Z,62.74
2022-08-31T04:23:16.818Z,63.33
2022-08-31T04:25:52.354Z,63.61
2022-08-31T04:28:21.398Z,63.27
2022-08-31T04:30:50.860Z,63.18
2022-08-31T04:33:20.022Z,63.51
2022-08-31T04:35:49.096Z,63.41
2022-08-31T04:38:18.279Z,63.21
2022-08-31T04:40:47.602Z,63.51
2022-08-31T04:43:16.665Z,63.61
2022-08-31T04:45:46.359Z,63.03
2022-08-31T04:48:15.825Z,62.58
2022-08-31T04:50:44.765Z,62.45
2022-08-31T04:53:13.808Z,62.26
2022-08-31T04:55:44.019Z,61.74
2022-08-31T04:58:14.579Z,61.27
2022-08-31T05:00:44.524Z,60.99
2022-08-31T05:03:42.440Z,60.73
2022-08-31T05:06:19.489Z,60.65
2022-08-31T05:08:54.573Z,60.53
2022-08-31T05:11:25.199Z,60.41
2022-08-31T05:13:56.954Z,60.51
2022-08-31T05:16:25.934Z,60.63
2022-08-31T05:18:55.341Z,60.39
2022-08-31T05:21:34.923Z,60.46
2022-08-31T05:24:20.778Z,60.40
2022-08-31T05:26:53.553Z,60.30
2022-08-31T05:29:25.006Z,60.19
2022-08-31T05:32:01.272Z,60.17
2022-08-31T05:34:30.061Z,60.28
2022-08-31T05:36:58.880Z,60.31
2022-08-31T05:39:32.494Z,60.43
2022-08-31T05:42:01.343Z,60.50
2022-08-31T05:44:30.033Z,60.55
2022-08-31T05:47:03.515Z,60.78
2022-08-31T05:49:34.088Z,60.87
2022-08-31T05:52:05.583Z,60.66
2022-08-31T05:54:37.027Z,60.79
2022-08-31T05:57:07.463Z,60.84
2022-08-31T05:59:36.253Z,60.75
2022-08-31T06:02:05.535Z,60.80
2022-08-31T06:04:35.705Z,60.66
2022-08-31T06:07:04.387Z,60.37
2022-08-31T06:09:47.026Z,60.08
2022-08-31T06:12:20.434Z,59.90
2022-08-31T06:14:53.245Z,59.83
2022-08-31T06:17:22.280Z,59.64
2022-08-31T06:19:51.888Z,59.42
2022-08-31T06:22:21.195Z,59.52
2022-08-31T06:24:51.034Z,59.40
2022-08-31T06:27:21.736Z,59.26
2022-08-31T06:29:51.861Z,59.11
2022-08-31T06:32:21.583Z,59.16
2022-08-31T06:34:56.806Z,59.06
2022-08-31T06:37:57.748Z,59.07
2022-08-31T06:40:46.414Z,58.85
2022-08-31T06:43:33.425Z,58.67
2022-08-31T06:46:12.776Z,58.38
2022-08-31T06:49:04.899Z,58.17
2022-08-31T06:51:38.645Z,57.85
2022-08-31T06:57:17.471Z,58.06
2022-08-31T07:00:08.796Z,57.34
2022-08-31T07:02:57.441Z,56.98
2022-08-31T07:05:27.564Z,57.15
2022-08-31T07:07:56.742Z,57.30
2022-08-31T07:10:25.534Z,57.11
2022-08-31T07:12:54.219Z,57.02
2022-08-31T07:15:23.518Z,56.90
2022-08-31T07:17:52.715Z,56.86
2022-08-31T07:20:22.021Z,56.93
2022-08-31T07:22:51.216Z,56.68
2022-08-31T07:25:40.382Z,56.37
2022-08-31T07:28:11.567Z,56.59
2022-08-31T07:30:42.706Z,56.41
2022-08-31T07:33:15.143Z,56.36
2022-08-31T07:35:49.371Z,56.20
2022-08-31T07:38:45.805Z,55.95
2022-08-31T07:41:34.355Z,54.95
2022-08-31T07:44:03.867Z,54.61
2022-08-31T07:46:33.515Z,54.53
2022-08-31T07:49:09.184Z,54.79
2022-08-31T07:51:53.986Z,54.38
2022-08-31T07:54:41.553Z,54.54
2022-08-31T07:57:26.046Z,54.07
2022-08-31T08:00:09.451Z,53.98
2022-08-31T08:02:53.324Z,53.69
2022-08-31T08:05:28.736Z,53.53
2022-08-31T08:08:23.235Z,53.19
2022-08-31T08:11:05.995Z,52.83
2022-08-31T08:13:36.318Z,52.79
2022-08-31T08:16:11.832Z,52.95
2022-08-31T08:18:49.678Z,52.73
2022-08-31T08:21:22.658Z,51.88
2022-08-31T08:23:52.672Z,51.13
2022-08-31T08:26:54.114Z,51.18
2022-08-31T08:29:42.857Z,50.97
2022-08-31T08:32:17.636Z,51.17
2022-08-31T08:34:46.941Z,50.81
2022-08-31T08:37:16.319Z,50.90
2022-08-31T08:39:46.576Z,51.03
2022-08-31T08:42:23.253Z,50.99
2022-08-31T08:44:52.206Z,50.92
2022-08-31T08:47:37.494Z,51.33
2022-08-31T08:50:09.545Z,51.25
2022-08-31T08:52:44.422Z,51.28
2022-08-31T08:55:17.567Z,51.24
2022-08-31T08:57:52.567Z,50.98
2022-08-31T09:00:28.787Z,50.96
2022-08-31T09:03:23.663Z,49.99
2022-08-31T09:06:45.946Z,49.93
2022-08-31T09:09:22.895Z,50.09
2022-08-31T09:12:25.163Z,49.64
2022-08-31T09:15:28.769Z,49.37
2022-08-31T09:18:07.492Z,49.57
2022-08-31T09:20:36.539Z,47.46
2022-08-31T09:23:08.348Z,46.74
2022-08-31T09:25:52.631Z,45.89
2022-08-31T09:28:43.853Z,45.64
2022-08-31T09:31:34.946Z,44.70
2022-08-31T09:34:08.742Z,45.38
2022-08-31T09:36:41.448Z,45.77
2022-08-31T09:39:33.071Z,45.87
2022-08-31T09:42:20.576Z,45.77
2022-08-31T09:44:51.408Z,45.65
2022-08-31T09:47:52.649Z,45.04
2022-08-31T09:50:36.302Z,43.88
2022-08-31T09:53:42.259Z,44.22
2022-08-31T09:56:17.367Z,44.34
2022-08-31T09:59:03.090Z,43.25
2022-08-31T10:01:45.340Z,43.33
2022-08-31T10:04:28.304Z,43.08
2022-08-31T10:07:06.815Z,42.58
2022-08-31T10:09:47.485Z,42.87
2022-08-31T10:12:42.215Z,42.36
2022-08-31T10:15:26.031Z,42.24
2022-08-31T10:18:12.118Z,41.81
2022-08-31T10:20:51.078Z,41.84
2022-08-31T10:23:36.524Z,42.37
2022-08-31T10:26:13.811Z,42.12
2022-08-31T10:28:54.564Z,41.82
2022-08-31T10:31:51.327Z,42.24
2022-08-31T10:34:53.140Z,42.10
2022-08-31T10:37:32.667Z,41.74
2022-08-31T10:40:10.286Z,40.79
2022-08-31T10:42:45.320Z,41.21
2022-08-31T10:45:18.802Z,41.40
2022-08-31T10:47:51.000Z,41.10
2022-08-31T10:50:45.610Z,41.14
2022-08-31T10:53:34.965Z,40.88
2022-08-31T10:56:36.069Z,40.76
2022-08-31T10:59:17.428Z,41.15
2022-08-31T11:01:57.482Z,40.59
2022-08-31T11:04:33.529Z,40.57
2022-08-31T11:07:36.119Z,40.84
2022-08-31T11:10:20.371Z,41.06
2022-08-31T11:12:57.859Z,41.16
2022-08-31T11:15:50.639Z,41.06
2022-08-31T11:18:52.275Z,40.84
2022-08-31T11:21:54.960Z,40.98
2022-08-31T11:24:37.742Z,40.85
2022-08-31T11:27:12.214Z,40.76
2022-08-31T11:29:58.871Z,41.19
2022-08-31T11:32:35.827Z,41.23
2022-08-31T11:35:10.723Z,40.92
2022-08-31T11:37:53.561Z,40.83
2022-08-31T11:40:58.065Z,40.74
2022-08-31T11:43:33.000Z,40.77
2022-08-31T11:46:27.356Z,40.33
2022-08-31T11:48:56.381Z,40.56
2022-08-31T11:51:38.693Z,40.74
2022-08-31T11:54:24.683Z,40.92
2022-08-31T11:56:57.260Z,40.68
2022-08-31T11:59:32.617Z,40.88
2022-08-31T12:02:21.811Z,40.65
2022-08-31T12:04:52.794Z,40.18
2022-08-31T12:07:37.098Z,40.39
2022-08-31T12:10:27.760Z,40.48
2022-08-31T12:13:07.815Z,40.77
2022-08-31T12:16:12.713Z,40.03
2022-08-31T12:19:03.249Z,40.19
2022-08-31T12:21:59.589Z,39.69
2022-08-31T12:24:49.465Z,39.81
2022-08-31T12:27:44.690Z,39.57
2022-08-31T12:30:21.992Z,39.72
2022-08-31T12:33:11.853Z,39.64
2022-08-31T12:35:41.047Z,39.68
2022-08-31T12:38:18.340Z,39.15
2022-08-31T12:40:58.231Z,38.81
2022-08-31T12:43:36.289Z,38.46
2022-08-31T12:46:05.330Z,38.63
2022-08-31T12:48:57.523Z,38.63
2022-08-31T12:51:47.007Z,38.29
2022-08-31T12:54:31.235Z,38.34
2022-08-31T12:57:03.045Z,38.73
2022-08-31T13:00:00.111Z,38.48
2022-08-31T13:02:33.943Z,38.48
2022-08-31T13:05:17.095Z,38.24
2022-08-31T13:07:45.988Z,37.76
2022-08-31T13:10:25.218Z,37.72
2022-08-31T13:12:57.680Z,37.81
2022-08-31T13:15:42.970Z,37.84
2022-08-31T13:18:38.392Z,37.90
2022-08-31T13:21:08.928Z,38.04
2022-08-31T13:23:48.570Z,37.97
2022-08-31T13:26:25.748Z,37.88
2022-08-31T13:28:58.685Z,37.81
2022-08-31T13:31:40.519Z,38.02
2022-08-31T13:34:09.313Z,38.15
2022-08-31T13:36:51.719Z,37.94
2022-08-31T13:39:30.241Z,38.14
2022-08-31T13:42:12.837Z,38.38
2022-08-31T13:44:44.640Z,38.05
2022-08-31T13:47:22.339Z,38.08
2022-08-31T13:49:59.947Z,38.46
2022-08-31T13:52:31.151Z,38.80
2022-08-31T13:55:04.489Z,38.49
2022-08-31T13:57:36.317Z,38.39
2022-08-31T14:00:36.951Z,39.16
2022-08-31T14:03:32.383Z,39.39
2022-08-31T14:06:26.337Z,39.47
2022-08-31T14:09:17.349Z,39.83
2022-08-31T14:12:01.751Z,40.01
2022-08-31T14:14:40.422Z,40.41
2022-08-31T14:17:18.013Z,40.61
2022-08-31T14:19:47.347Z,40.49
2022-08-31T14:22:30.530Z,40.38
2022-08-31T14:25:01.290Z,40.44
2022-08-31T14:27:30.794Z,40.45
2022-08-31T14:30:00.811Z,40.66
2022-08-31T14:32:31.466Z,40.94
2022-08-31T14:35:01.658Z,41.07
2022-08-31T14:37:32.031Z,41.34
2022-08-31T14:40:07.097Z,41.63
2022-08-31T14:42:39.730Z,41.49
2022-08-31T14:45:11.509Z,41.46
2022-08-31T14:47:44.343Z,41.54
2022-08-31T14:50:18.714Z,41.34
2022-08-31T14:52:58.946Z,41.21
2022-08-31T14:55:32.938Z,41.40
2022-08-31T14:58:08.686Z,41.20
2022-08-31T15:00:44.224Z,41.18
2022-08-31T15:03:15.591Z,41.45
2022-08-31T15:05:44.676Z,41.27
2022-08-31T15:08:13.877Z,41.43
2022-08-31T15:10:42.907Z,41.43
2022-08-31T15:13:12.069Z,41.46
2022-08-31T15:15:43.798Z,41.33
2022-08-31T15:18:15.338Z,41.35
2022-08-31T15:20:44.427Z,41.43
2022-08-31T15:23:13.573Z,41.44
2022-08-31T15:25:44.414Z,41.37
2022-08-31T15:28:14.825Z,41.54
2022-08-31T15:30:43.729Z,41.60
2022-08-31T15:33:12.873Z,41.45
2022-08-31T15:35:43.597Z,41.35
2022-08-31T15:38:12.615Z,41.54
2022-08-31T15:40:42.452Z,41.65
2022-08-31T15:43:16.278Z,41.60
2022-08-31T15:45:45.450Z,41.64
2022-08-31T15:48:33.208Z,41.43
2022-08-31T15:51:02.406Z,41.51
2022-08-31T15:53:32.573Z,41.84
2022-08-31T15:56:08.524Z,41.78
2022-08-31T15:58:40.686Z,41.65
2022-08-31T16:01:16.531Z,41.59
2022-08-31T16:03:57.329Z,41.51
2022-08-31T16:06:35.229Z,41.78
2022-08-31T16:09:05.182Z,41.92
2022-08-31T16:11:40.288Z,41.88
2022-08-31T16:14:14.520Z,42.08
2022-08-31T16:16:46.998Z,42.46
2022-08-31T16:19:33.672Z,42.39
2022-08-31T16:22:06.667Z,42.46
2022-08-31T16:24:37.560Z,42.68
2022-08-31T16:27:15.884Z,42.79
2022-08-31T16:29:47.541Z,42.78
2022-08-31T16:32:16.918Z,42.82
2022-08-31T16:34:46.273Z,42.91
2022-08-31T16:37:15.241Z,43.09
2022-08-31T16:39:47.354Z,43.23
2022-08-31T16:42:17.869Z,43.27
2022-08-31T16:44:48.082Z,43.46
2022-08-31T16:47:19.024Z,43.50
2022-08-31T16:49:48.746Z,43.64
2022-08-31T16:52:24.500Z,43.70
2022-08-31T16:58:51.118Z,43.98
2022-08-31T17:01:24.744Z,44.00
2022-08-31T17:03:56.276Z,44.18
2022-08-31T17:06:31.143Z,44.41
2022-08-31T17:09:04.334Z,44.69
2022-08-31T17:11:38.078Z,45.00
2022-08-31T17:14:09.060Z,45.17
2022-08-31T17:16:39.844Z,45.14
2022-08-31T17:19:11.960Z,45.33
2022-08-31T17:21:50.950Z,45.54
2022-08-31T17:24:24.589Z,45.92
2022-08-31T17:26:59.729Z,45.88
2022-08-31T17:29:34.226Z,45.89
2022-08-31T17:32:17.308Z,45.79
2022-08-31T17:34:51.870Z,45.88
2022-08-31T17:37:27.974Z,45.61
2022-08-31T17:39:56.890Z,45.77
2022-08-31T17:42:27.451Z,45.84
2022-08-31T17:44:58.329Z,45.97
2022-08-31T17:47:27.277Z,46.11
2022-08-31T17:49:56.015Z,45.91
2022-08-31T17:52:24.864Z,45.96
2022-08-31T17:54:53.781Z,45.98
2022-08-31T17:57:26.738Z,46.34
2022-08-31T17:59:55.965Z,46.16
2022-08-31T18:02:32.833Z,46.13
2022-08-31T18:05:03.226Z,46.18
2022-08-31T18:07:41.340Z,46.43
2022-08-31T18:10:10.643Z,46.29
2022-08-31T18:12:42.191Z,46.59
2022-08-31T18:15:14.082Z,46.41
2022-08-31T18:17:43.563Z,46.50
2022-08-31T18:20:12.851Z,46.62
2022-08-31T18:22:41.502Z,46.46
2022-08-31T18:25:10.916Z,46.75
2022-08-31T18:27:39.735Z,46.97
2022-08-31T18:30:10.156Z,47.20
2022-08-31T18:32:38.801Z,47.32
2022-08-31T18:35:17.986Z,47.56
2022-08-31T18:37:47.190Z,47.63
2022-08-31T18:40:34.714Z,47.72
2022-08-31T18:43:22.184Z,47.90
2022-08-31T18:45:51.486Z,47.90
2022-08-31T18:48:26.277Z,47.88
2022-08-31T18:50:59.373Z,47.96
2022-08-31T18:53:30.443Z,47.92
2022-08-31T18:56:08.031Z,48.04
2022-08-31T18:58:38.128Z,47.73
2022-08-31T19:01:11.653Z,47.68
2022-08-31T19:03:42.151Z,47.68
2022-08-31T19:06:24.193Z,47.61
2022-08-31T19:08:53.438Z,47.41
2022-08-31T19:11:23.634Z,47.40
2022-08-31T19:13:56.967Z,47.58
2022-08-31T19:16:29.207Z,47.73
2022-08-31T19:18:59.048Z,47.86
2022-08-31T19:21:30.943Z,47.95
2022-08-31T19:24:01.742Z,48.24
2022-08-31T19:26:39.525Z,48.21
2022-08-31T19:29:11.562Z,48.05
2022-08-31T19:31:44.677Z,48.14
2022-08-31T19:34:20.173Z,48.21
2022-08-31T19:36:53.980Z,48.38
2022-08-31T19:39:28.175Z,48.53
2022-08-31T19:42:00.107Z,48.37
2022-08-31T19:44:29.343Z,48.75
2022-08-31T19:47:25.227Z,48.86
2022-08-31T19:49:54.162Z,48.91
2022-08-31T19:52:24.688Z,49.04
2022-08-31T19:54:53.473Z,48.98
2022-08-31T19:57:22.962Z,49.10
2022-08-31T19:59:51.668Z,49.08
2022-08-31T20:02:22.498Z,49.26
2022-08-31T20:04:51.403Z,49.30
2022-08-31T20:07:26.944Z,49.27
2022-08-31T20:09:58.503Z,49.18
2022-08-31T20:12:27.330Z,49.33
2022-08-31T20:14:55.971Z,49.65
2022-08-31T20:17:24.766Z,49.80
2022-08-31T20:19:55.320Z,49.71
2022-08-31T20:22:26.167Z,49.83
2022-08-31T20:25:01.986Z,49.96
2022-08-31T20:27:38.158Z,50.13
2022-08-31T20:30:08.397Z,50.33
2022-08-31T20:32:37.054Z,50.27
2022-08-31T20:35:07.079Z,50.41
2022-08-31T20:37:35.859Z,50.50
2022-08-31T20:40:04.921Z,50.60
2022-08-31T20:42:33.644Z,50.68
2022-08-31T20:45:05.009Z,50.52
2022-08-31T20:47:54.058Z,50.54
2022-08-31T20:50:22.794Z,50.98
2022-08-31T20:52:51.738Z,50.80
2022-08-31T20:55:20.736Z,50.96
2022-08-31T20:57:51.061Z,51.19
2022-08-31T21:00:20.166Z,50.95
2022-08-31T21:02:50.246Z,51.43
2022-08-31T21:05:38.429Z,51.60
2022-08-31T21:08:08.028Z,51.54
2022-08-31T21:10:39.092Z,51.44
2022-08-31T21:13:11.038Z,51.54
2022-08-31T21:15:42.153Z,51.83
2022-08-31T21:18:12.094Z,52.09
2022-08-31T21:20:41.013Z,52.24
2022-08-31T21:23:10.895Z,52.75
2022-08-31T21:25:45.355Z,52.52
2022-08-31T21:28:18.080Z,52.93
2022-08-31T21:30:50.323Z,52.65
2022-08-31T21:33:19.441Z,52.83
2022-08-31T21:35:48.359Z,52.77
2022-08-31T21:38:18.584Z,52.94
2022-08-31T21:40:49.441Z,53.26
2022-08-31T21:43:19.018Z,53.29
2022-08-31T21:45:55.166Z,53.44
2022-08-31T21:48:26.019Z,53.71
2022-08-31T21:50:55.597Z,53.92
2022-08-31T21:53:26.159Z,53.82
2022-08-31T21:55:55.053Z,53.85
2022-08-31T21:58:24.084Z,54.04
2022-08-31T22:00:52.934Z,53.77
2022-08-31T22:03:22.853Z,53.85
2022-08-31T22:05:51.746Z,53.74
2022-08-31T22:08:20.894Z,53.75
2022-08-31T22:10:49.424Z,54.22
2022-08-31T22:13:18.540Z,54.51
2022-08-31T22:15:48.364Z,54.72
2022-08-31T22:21:07.306Z,54.92
2022-08-31T22:23:35.995Z,54.72
2022-08-31T22:26:04.914Z,54.92
2022-08-31T22:28:35.078Z,54.88
2022-08-31T22:31:04.679Z,54.83
2022-08-31T22:33:33.406Z,54.83
2022-08-31T22:36:02.226Z,55.13
2022-08-31T22:38:31.052Z,54.50
2022-08-31T22:41:10.020Z,55.16
2022-08-31T22:43:40.098Z,55.08
2022-08-31T22:46:13.930Z,54.67
2022-08-31T22:48:42.624Z,54.49
2022-08-31T22:51:13.259Z,54.71
2022-08-31T22:53:45.132Z,54.84
2022-08-31T22:56:19.501Z,54.57
2022-08-31T22:58:49.372Z,55.13
2022-08-31T23:01:23.347Z,55.14
2022-08-31T23:03:54.069Z,55.17
2022-08-31T23:06:23.816Z,55.61
2022-08-31T23:08:54.426Z,55.58
2022-08-31T23:11:24.992Z,55.24
2022-08-31T23:13:57.627Z,55.65
2022-08-31T23:16:29.988Z,55.96
2022-08-31T23:19:05.478Z,55.39
2022-08-31T23:21:35.211Z,55.16
2022-08-31T23:24:05.001Z,55.09
2022-08-31T23:26:33.480Z,55.06
2022-08-31T23:29:05.849Z,55.12
2022-08-31T23:31:35.962Z,55.10
2022-08-31T23:34:09.993Z,55.38
2022-08-31T23:36:41.023Z,55.36
2022-08-31T23:39:10.019Z,55.35
2022-08-31T23:41:39.212Z,55.17
